createdAt,value
2023-04-19T00:00:50.784Z,26.48
2023-04-19T00:03:18.856Z,22.02
2023-04-19T00:05:46.993Z,27.80
2023-04-19T00:08:14.606Z,30.23
2023-04-19T00:10:42.245Z,27.63
2023-04-19T00:13:10.828Z,29.42
2023-04-19T00:15:39.132Z,25.08
2023-04-19T00:18:08.395Z,26.83
2023-04-19T00:20:36.365Z,28.20
2023-04-19T00:23:03.952Z,34.88
2023-04-19T00:25:32.027Z,33.22
2023-04-19T00:27:59.648Z,27.00
2023-04-19T00:30:27.271Z,26.77
2023-04-19T00:32:55.044Z,30.45
2023-04-19T00:35:24.084Z,30.92
2023-04-19T00:37:51.705Z,27.38
2023-04-19T00:40:19.411Z,33.63
2023-04-19T00:42:47.354Z,29.83
2023-04-19T00:45:15.266Z,29.95
2023-04-19T00:47:43.612Z,34.85
2023-04-19T00:50:12.089Z,28.63
2023-04-19T00:52:41.460Z,26.35
2023-04-19T00:55:09.580Z,33.20
2023-04-19T00:57:38.241Z,24.92
2023-04-19T01:00:08.893Z,31.55
2023-04-19T01:02:36.910Z,34.63
2023-04-19T01:05:04.887Z,38.08
2023-04-19T01:07:34.317Z,31.63
2023-04-19T01:10:06.529Z,36.50
2023-04-19T01:12:34.153Z,33.25
2023-04-19T01:15:01.781Z,36.92
2023-04-19T01:17:30.296Z,28.40
2023-04-19T01:20:00.284Z,29.55
2023-04-19T01:22:30.133Z,34.33
2023-04-19T01:24:58.667Z,32.13
2023-04-19T01:27:26.470Z,32.08
2023-04-19T01:29:54.239Z,35.67
2023-04-19T01:32:21.883Z,29.45
2023-04-19T01:34:49.976Z,34.58
2023-04-19T01:37:17.707Z,38.25
2023-04-19T01:39:46.697Z,28.88
2023-04-19T01:42:14.395Z,33.78
2023-04-19T01:44:42.075Z,33.80
2023-04-19T01:47:10.487Z,33.75
2023-04-19T01:49:38.333Z,35.97
2023-04-19T01:52:06.041Z,31.55
2023-04-19T01:54:33.664Z,35.17
2023-04-19T01:57:02.765Z,32.30
2023-04-19T01:59:30.487Z,33.20
2023-04-19T02:01:59.082Z,34.30
2023-04-19T02:04:27.285Z,33.83
2023-04-19T02:06:54.986Z,39.08
2023-04-19T02:09:22.723Z,32.03
2023-04-19T02:11:51.285Z,27.00
2023-04-19T02:14:20.242Z,42.13
2023-04-19T02:16:49.032Z,42.42
2023-04-19T02:19:16.714Z,37.47
2023-04-19T02:21:44.451Z,32.42
2023-04-19T02:24:12.152Z,55.03
2023-04-19T02:26:40.354Z,34.30
2023-04-19T02:29:08.031Z,37.83
2023-04-19T02:31:37.345Z,39.45
2023-04-19T02:34:05.019Z,36.28
2023-04-19T02:36:33.654Z,36.75
2023-04-19T02:39:01.299Z,37.20
2023-04-19T02:41:28.889Z,33.17
2023-04-19T02:43:56.690Z,36.08
2023-04-19T02:46:24.656Z,31.60
2023-04-19T02:48:53.684Z,35.17
2023-04-19T02:51:21.402Z,34.33
2023-04-19T02:53:49.655Z,33.67
2023-04-19T02:56:17.264Z,34.40
2023-04-19T02:58:44.929Z,36.30
2023-04-19T03:01:12.668Z,32.90
2023-04-19T03:03:40.444Z,34.30
2023-04-19T03:06:10.106Z,29.33
2023-04-19T03:08:37.729Z,34.42
2023-04-19T03:11:05.404Z,31.23
2023-04-19T03:13:33.044Z,30.63
2023-04-19T03:16:00.774Z,31.65
2023-04-19T03:18:28.497Z,38.70
2023-04-19T03:20:56.183Z,33.53
2023-04-19T03:23:26.878Z,31.17
2023-04-19T03:25:54.622Z,32.63
2023-04-19T03:28:22.331Z,33.15
2023-04-19T03:30:49.938Z,34.53
2023-04-19T03:33:17.566Z,30.63
2023-04-19T03:35:45.542Z,27.73
2023-04-19T03:38:13.904Z,38.47
2023-04-19T03:40:43.409Z,31.27
2023-04-19T03:43:11.117Z,35.58
2023-04-19T03:45:38.800Z,41.78
2023-04-19T03:48:06.722Z,37.15
2023-04-19T03:50:36.503Z,36.00
2023-04-19T03:53:04.841Z,38.92
2023-04-19T03:55:32.512Z,37.95
2023-04-19T03:58:01.844Z,39.95
2023-04-19T04:00:29.592Z,38.70
2023-04-19T04:02:57.596Z,40.42
2023-04-19T04:05:28.436Z,37.92
2023-04-19T04:07:56.540Z,36.88
2023-04-19T04:10:24.216Z,38.70
2023-04-19T04:12:51.862Z,36.35
2023-04-19T04:15:20.936Z,35.10
2023-04-19T04:17:48.618Z,44.00
2023-04-19T04:20:17.015Z,33.90
2023-04-19T04:22:46.417Z,35.40
2023-04-19T04:25:15.833Z,36.30
2023-04-19T04:27:44.097Z,33.83
2023-04-19T04:30:12.280Z,42.17
2023-04-19T04:32:41.390Z,34.30
2023-04-19T04:35:10.865Z,34.30
2023-04-19T04:37:38.479Z,36.22
2023-04-19T04:40:07.128Z,34.42
2023-04-19T04:42:35.706Z,38.75
2023-04-19T04:45:03.794Z,38.63
2023-04-19T04:47:34.846Z,36.72
2023-04-19T04:50:04.198Z,34.47
2023-04-19T04:52:31.825Z,34.13
2023-04-19T04:54:59.446Z,38.60
2023-04-19T04:57:27.186Z,39.97
2023-04-19T04:59:56.383Z,36.33
2023-04-19T05:02:24.281Z,35.28
2023-04-19T05:04:52.037Z,38.72
2023-04-19T05:07:21.045Z,37.70
2023-04-19T05:09:48.774Z,39.15
2023-04-19T05:12:16.466Z,44.78
2023-04-19T05:14:44.105Z,35.22
2023-04-19T05:17:11.788Z,36.53
2023-04-19T05:19:39.513Z,37.58
2023-04-19T05:22:07.350Z,33.17
2023-04-19T05:24:36.429Z,36.63
2023-04-19T05:27:04.063Z,37.17
2023-04-19T05:29:32.498Z,32.38
2023-04-19T05:32:00.942Z,44.58
2023-04-19T05:34:29.038Z,30.65
2023-04-19T05:36:56.944Z,35.38
2023-04-19T05:39:24.711Z,33.47
2023-04-19T05:41:54.525Z,30.73
2023-04-19T05:44:22.192Z,32.53
2023-04-19T05:46:49.889Z,32.70
2023-04-19T05:49:17.498Z,33.45
2023-04-19T05:51:45.169Z,29.60
2023-04-19T05:54:14.724Z,27.08
2023-04-19T05:56:42.699Z,27.40
2023-04-19T05:59:11.797Z,32.65
2023-04-19T06:01:39.970Z,28.88
2023-04-19T06:04:08.459Z,25.38
2023-04-19T06:06:38.191Z,29.75
2023-04-19T06:09:07.163Z,31.48
2023-04-19T06:11:42.899Z,25.23
2023-04-19T06:14:19.327Z,33.55
2023-04-19T06:16:47.541Z,32.40
2023-04-19T06:19:15.314Z,28.27
2023-04-19T06:21:43.125Z,28.02
2023-04-19T06:24:10.955Z,26.27
2023-04-19T06:26:38.596Z,27.33
2023-04-19T06:29:06.342Z,27.75
2023-04-19T06:31:35.413Z,21.40
2023-04-19T06:34:03.729Z,22.48
2023-04-19T06:36:31.426Z,24.23
2023-04-19T06:38:59.070Z,24.38
2023-04-19T06:41:26.834Z,24.08
2023-04-19T06:43:54.568Z,21.80
2023-04-19T06:46:22.408Z,21.08
2023-04-19T06:48:51.417Z,22.05
2023-04-19T06:51:19.000Z,23.65
2023-04-19T06:53:46.762Z,25.98
2023-04-19T06:56:14.987Z,23.08
2023-04-19T06:58:42.607Z,20.98
2023-04-19T07:01:10.863Z,21.55
2023-04-19T07:03:38.600Z,21.45
2023-04-19T07:06:08.016Z,22.88
2023-04-19T07:08:48.689Z,21.08
2023-04-19T07:11:19.290Z,24.77
2023-04-19T07:13:48.450Z,24.63
2023-04-19T07:16:16.208Z,23.30
2023-04-19T07:18:44.431Z,20.52
2023-04-19T07:21:13.448Z,26.30
2023-04-19T07:23:41.504Z,24.83
2023-04-19T07:26:09.277Z,19.13
2023-04-19T07:28:36.915Z,24.48
2023-04-19T07:31:04.612Z,21.27
2023-04-19T07:33:35.418Z,20.73
2023-04-19T07:36:03.065Z,21.05
2023-04-19T07:38:32.157Z,21.55
2023-04-19T07:41:00.748Z,17.88
2023-04-19T07:43:28.425Z,19.70
2023-04-19T07:45:56.158Z,20.48
2023-04-19T07:48:23.894Z,17.58
2023-04-19T07:50:52.126Z,17.10
2023-04-19T07:53:19.975Z,18.60
2023-04-19T07:55:48.972Z,22.30
2023-04-19T07:58:16.673Z,15.20
2023-04-19T08:00:44.343Z,18.67
2023-04-19T08:03:12.604Z,18.35
2023-04-19T08:05:40.699Z,16.30
2023-04-19T08:08:08.413Z,19.25
2023-04-19T08:10:36.152Z,23.20
2023-04-19T08:13:06.597Z,17.58
2023-04-19T08:18:10.252Z,14.18
2023-04-19T08:20:38.097Z,17.38
2023-04-19T08:23:20.444Z,18.80
2023-04-19T08:25:50.941Z,20.90
2023-04-19T08:28:20.168Z,15.32
2023-04-19T08:30:47.880Z,13.30
2023-04-19T08:33:15.688Z,16.98
2023-04-19T08:35:45.420Z,17.20
2023-04-19T08:38:13.449Z,15.15
2023-04-19T08:40:42.775Z,16.38
2023-04-19T08:43:11.176Z,15.48
2023-04-19T08:45:40.384Z,15.45
2023-04-19T08:48:10.437Z,14.13
2023-04-19T08:50:48.772Z,14.38
2023-04-19T08:53:29.525Z,15.38
2023-04-19T08:56:12.828Z,17.23
2023-04-19T08:59:04.096Z,15.40
2023-04-19T09:01:36.507Z,14.50
2023-04-19T09:04:16.872Z,18.15
2023-04-19T09:06:54.176Z,17.27
2023-04-19T09:11:53.766Z,21.55
2023-04-19T09:14:22.373Z,19.65
2023-04-19T09:16:52.537Z,13.40
2023-04-19T09:19:24.852Z,18.70
2023-04-19T09:21:54.881Z,17.63
2023-04-19T09:25:02.604Z,19.00
2023-04-19T09:27:31.317Z,18.10
2023-04-19T09:29:59.917Z,13.30
2023-04-19T09:32:29.637Z,15.98
2023-04-19T09:34:58.259Z,17.20
2023-04-19T09:39:57.210Z,15.10
2023-04-19T09:42:45.362Z,17.70
2023-04-19T09:45:29.160Z,12.38
2023-04-19T09:48:07.330Z,15.90
2023-04-19T09:50:50.505Z,12.65
2023-04-19T09:53:22.188Z,15.30
2023-04-19T09:56:00.195Z,15.75
2023-04-19T10:01:13.367Z,12.40
2023-04-19T10:03:45.889Z,10.93
2023-04-19T10:06:31.822Z,12.85
2023-04-19T10:09:04.218Z,13.40
2023-04-19T10:11:37.190Z,11.65
2023-04-19T10:14:05.910Z,14.18
2023-04-19T10:16:33.953Z,12.50
2023-04-19T10:19:04.499Z,11.38
2023-04-19T10:21:33.275Z,9.85
2023-04-19T10:24:01.995Z,9.68
2023-04-19T10:26:29.741Z,10.05
2023-04-19T10:28:58.155Z,10.85
2023-04-19T10:31:29.052Z,11.00
2023-04-19T10:33:57.898Z,8.88
2023-04-19T10:36:28.462Z,10.55
2023-04-19T10:38:56.212Z,11.65
2023-04-19T10:41:38.856Z,11.18
2023-04-19T10:44:10.566Z,12.27
2023-04-19T10:46:40.277Z,11.32
2023-04-19T10:49:09.787Z,11.75
2023-04-19T10:51:50.980Z,13.60
2023-04-19T10:54:31.828Z,12.52
2023-04-19T10:57:05.531Z,10.80
2023-04-19T10:59:34.870Z,11.55
2023-04-19T11:02:28.515Z,10.63
2023-04-19T11:05:05.511Z,10.82
2023-04-19T11:07:42.053Z,11.68
2023-04-19T11:10:38.106Z,9.77
2023-04-19T11:13:06.730Z,9.80
2023-04-19T11:15:34.492Z,12.90
2023-04-19T11:18:12.358Z,11.20
2023-04-19T11:20:43.735Z,24.60
2023-04-19T11:23:18.969Z,8.65
2023-04-19T11:25:49.387Z,8.82
2023-04-19T11:28:18.217Z,8.23
2023-04-19T11:30:46.311Z,11.13
2023-04-19T11:33:14.160Z,8.82
2023-04-19T11:35:42.270Z,11.25
2023-04-19T11:38:10.150Z,12.93
2023-04-19T11:40:39.233Z,11.57
2023-04-19T11:43:06.909Z,9.77
2023-04-19T11:45:39.473Z,10.98
2023-04-19T11:48:08.741Z,10.88
2023-04-19T11:50:38.162Z,10.63
2023-04-19T11:53:12.658Z,12.45
2023-04-19T11:55:43.243Z,9.52
2023-04-19T11:58:10.861Z,8.43
2023-04-19T12:00:38.806Z,9.90
2023-04-19T12:03:06.815Z,11.38
2023-04-19T12:05:35.174Z,10.38
2023-04-19T12:08:04.104Z,9.73
2023-04-19T12:10:31.945Z,11.50
2023-04-19T12:13:01.044Z,7.88
2023-04-19T12:15:43.745Z,11.50
2023-04-19T12:18:11.535Z,9.32
2023-04-19T12:20:40.046Z,10.07
2023-04-19T12:23:11.289Z,8.90
2023-04-19T12:25:38.919Z,10.90
2023-04-19T12:28:08.027Z,15.55
2023-04-19T12:30:36.701Z,7.80
2023-04-19T12:33:04.667Z,8.52
2023-04-19T12:35:32.422Z,8.88
2023-04-19T12:38:01.608Z,8.32
2023-04-19T12:40:29.313Z,7.85
2023-04-19T12:42:56.988Z,13.75
2023-04-19T12:45:26.405Z,9.10
2023-04-19T12:47:54.120Z,8.70
2023-04-19T12:50:21.874Z,11.30
2023-04-19T12:52:50.820Z,9.73
2023-04-19T12:55:18.431Z,8.15
2023-04-19T12:57:46.104Z,10.85
2023-04-19T13:00:14.115Z,11.45
2023-04-19T13:02:43.309Z,9.18
2023-04-19T13:05:12.923Z,9.93
2023-04-19T13:07:40.860Z,9.85
2023-04-19T13:10:09.181Z,11.35
2023-04-19T13:12:37.306Z,11.38
2023-04-19T13:15:05.459Z,12.18
2023-04-19T13:17:33.470Z,11.48
2023-04-19T13:20:02.522Z,10.20
2023-04-19T13:22:31.491Z,9.60
2023-04-19T13:24:59.938Z,7.65
2023-04-19T13:27:27.581Z,9.50
2023-04-19T13:29:55.894Z,11.02
2023-04-19T13:32:23.718Z,7.32
2023-04-19T13:34:51.441Z,9.05
2023-04-19T13:37:20.395Z,10.30
2023-04-19T13:39:48.168Z,8.27
2023-04-19T13:42:16.111Z,8.23
2023-04-19T13:44:43.862Z,7.68
2023-04-19T13:47:11.796Z,7.30
2023-04-19T13:49:39.648Z,5.63
2023-04-19T13:52:07.725Z,6.45
2023-04-19T13:54:36.724Z,6.32
2023-04-19T13:57:04.421Z,12.50
2023-04-19T13:59:32.068Z,8.00
2023-04-19T14:01:59.848Z,5.93
2023-04-19T14:04:28.390Z,9.50
2023-04-19T14:06:56.093Z,7.32
2023-04-19T14:09:23.800Z,5.75
2023-04-19T14:11:53.273Z,8.18
2023-04-19T14:14:21.522Z,7.70
2023-04-19T14:16:49.370Z,10.02
2023-04-19T14:19:17.203Z,19.60
2023-04-19T14:21:44.866Z,6.63
2023-04-19T14:24:12.671Z,6.28
2023-04-19T14:26:45.381Z,8.45
2023-04-19T14:29:14.537Z,10.80
2023-04-19T14:31:42.450Z,8.50
2023-04-19T14:34:30.975Z,9.57
2023-04-19T14:36:58.651Z,6.57
2023-04-19T14:39:34.343Z,5.22
2023-04-19T14:42:02.161Z,4.70
2023-04-19T14:44:36.093Z,5.57
2023-04-19T14:47:04.459Z,5.68
2023-04-19T14:49:44.218Z,5.00
2023-04-19T14:52:12.074Z,4.75
2023-04-19T14:54:40.533Z,5.88
2023-04-19T14:57:08.202Z,5.55
2023-04-19T14:59:37.402Z,3.65
2023-04-19T15:02:05.649Z,4.53
2023-04-19T15:04:37.335Z,4.00
2023-04-19T15:07:11.541Z,4.63
2023-04-19T15:09:40.560Z,5.72
2023-04-19T15:12:08.245Z,4.53
2023-04-19T15:14:37.339Z,6.47
2023-04-19T15:17:05.204Z,4.22
2023-04-19T15:19:36.481Z,4.85
2023-04-19T15:22:04.977Z,4.18
2023-04-19T15:24:51.675Z,3.80
2023-04-19T15:27:19.540Z,3.70
2023-04-19T15:29:48.786Z,4.25
2023-04-19T15:32:16.352Z,4.68
2023-04-19T15:34:43.958Z,4.05
2023-04-19T15:37:11.916Z,3.88
2023-04-19T15:39:39.552Z,3.83
2023-04-19T15:42:07.324Z,2.70
2023-04-19T15:44:35.230Z,4.15
2023-04-19T15:47:04.276Z,6.35
2023-04-19T15:49:32.649Z,2.53
2023-04-19T15:52:00.398Z,5.60
2023-04-19T15:54:28.833Z,3.30
2023-04-19T15:56:57.497Z,3.80
2023-04-19T15:59:25.858Z,3.90
2023-04-19T16:01:53.596Z,4.05
2023-04-19T16:04:24.084Z,4.07
2023-04-19T16:06:52.304Z,5.65
2023-04-19T16:09:20.300Z,5.80
2023-04-19T16:11:48.097Z,3.45
2023-04-19T16:14:16.321Z,4.20
2023-04-19T16:16:44.193Z,4.78
2023-04-19T16:19:12.043Z,4.90
2023-04-19T16:21:41.353Z,4.82
2023-04-19T16:24:09.418Z,4.15
2023-04-19T16:26:37.234Z,2.90
2023-04-19T16:29:04.905Z,6.32
2023-04-19T16:31:33.359Z,6.45
2023-04-19T16:34:05.271Z,5.00
2023-04-19T16:36:36.825Z,4.00
2023-04-19T16:39:05.960Z,3.53
2023-04-19T16:41:33.620Z,3.60
2023-04-19T16:44:01.323Z,3.08
2023-04-19T16:46:29.266Z,5.50
2023-04-19T16:48:58.904Z,3.80
2023-04-19T16:51:27.019Z,3.65
2023-04-19T16:53:54.850Z,4.90
2023-04-19T16:56:24.252Z,3.50
2023-04-19T16:58:52.260Z,3.70
2023-04-19T17:01:19.893Z,4.70
2023-04-19T17:03:47.632Z,2.97
2023-04-19T17:06:15.781Z,3.85
2023-04-19T17:08:43.541Z,6.95
2023-04-19T17:11:11.224Z,3.63
2023-04-19T17:13:40.220Z,6.00
2023-04-19T17:16:11.634Z,6.63
2023-04-19T17:18:39.870Z,5.95
2023-04-19T17:21:07.654Z,9.63
2023-04-19T17:23:35.572Z,3.33
2023-04-19T17:26:03.444Z,3.63
2023-04-19T17:28:31.104Z,3.45
2023-04-19T17:31:00.273Z,3.45
2023-04-19T17:33:28.865Z,5.40
2023-04-19T17:35:56.568Z,6.72
2023-04-19T17:38:24.309Z,2.25
2023-04-19T17:40:52.790Z,4.32
2023-04-19T17:43:21.010Z,4.05
2023-04-19T17:45:48.784Z,5.32
2023-04-19T17:48:17.808Z,3.03
2023-04-19T17:50:48.163Z,4.22
2023-04-19T17:53:18.887Z,3.95
2023-04-19T17:55:46.923Z,5.13
2023-04-19T17:58:14.631Z,5.13
2023-04-19T18:00:42.467Z,8.02
2023-04-19T18:03:11.248Z,4.82
2023-04-19T18:05:40.800Z,4.40
2023-04-19T18:08:08.938Z,4.75
2023-04-19T18:10:45.707Z,5.60
2023-04-19T18:13:13.730Z,5.78
2023-04-19T18:15:41.716Z,6.97
2023-04-19T18:18:09.612Z,5.32
2023-04-19T18:20:37.262Z,7.55
2023-04-19T18:23:06.926Z,5.68
2023-04-19T18:25:37.085Z,4.60
2023-04-19T18:28:05.628Z,3.80
2023-04-19T18:30:33.888Z,6.35
2023-04-19T18:33:01.602Z,8.45
2023-04-19T18:35:29.406Z,4.85
2023-04-19T18:37:57.804Z,5.57
2023-04-19T18:40:26.867Z,6.63
2023-04-19T18:42:55.228Z,5.00
2023-04-19T18:45:23.412Z,4.38
2023-04-19T18:47:51.213Z,8.32
2023-04-19T18:50:19.385Z,6.05
2023-04-19T18:52:47.218Z,6.50
2023-04-19T18:55:17.344Z,7.53
2023-04-19T18:57:46.362Z,4.05
2023-04-19T19:00:14.623Z,9.07
2023-04-19T19:02:44.037Z,8.52
2023-04-19T19:05:14.000Z,6.40
2023-04-19T19:07:42.264Z,7.07
2023-04-19T19:10:19.417Z,3.90
2023-04-19T19:12:51.114Z,7.78
2023-04-19T19:15:19.228Z,4.25
2023-04-19T19:17:50.378Z,4.03
2023-04-19T19:20:24.257Z,7.75
2023-04-19T19:22:51.922Z,10.43
2023-04-19T19:25:22.725Z,9.25
2023-04-19T19:30:25.670Z,5.70
2023-04-19T19:32:53.359Z,8.40
2023-04-19T19:35:21.611Z,9.77
2023-04-19T19:37:49.598Z,7.10
2023-04-19T19:40:17.413Z,5.18
2023-04-19T19:42:48.450Z,6.90
2023-04-19T19:45:19.381Z,6.93
2023-04-19T19:47:49.530Z,10.98
2023-04-19T19:52:48.706Z,10.40
2023-04-19T19:55:16.411Z,7.75
2023-04-19T20:00:31.815Z,5.22
2023-04-19T20:03:06.620Z,10.05
2023-04-19T20:05:35.186Z,7.80
2023-04-19T20:08:08.127Z,4.78
2023-04-19T20:10:36.902Z,4.57
2023-04-19T20:13:06.575Z,6.07
2023-04-19T20:15:34.639Z,6.78
2023-04-19T20:18:02.414Z,6.97
2023-04-19T20:20:31.615Z,7.10
2023-04-19T20:22:59.338Z,7.35
2023-04-19T20:25:28.247Z,8.43
2023-04-19T20:27:56.437Z,5.57
2023-04-19T20:30:24.359Z,10.07
2023-04-19T20:32:52.033Z,6.88
2023-04-19T20:35:19.735Z,7.20
2023-04-19T20:37:48.867Z,5.68
2023-04-19T20:40:16.615Z,4.55
2023-04-19T20:42:45.107Z,4.97
2023-04-19T20:45:14.342Z,7.15
2023-04-19T20:47:42.876Z,6.97
2023-04-19T20:50:11.275Z,4.47
2023-04-19T20:52:39.002Z,5.93
2023-04-19T20:55:08.712Z,4.88
2023-04-19T20:57:36.493Z,6.50
2023-04-19T21:00:05.677Z,6.22
2023-04-19T21:02:33.485Z,5.25
2023-04-19T21:05:01.449Z,4.97
2023-04-19T21:07:30.107Z,4.95
2023-04-19T21:09:59.935Z,7.90
2023-04-19T21:12:30.750Z,3.53
2023-04-19T21:14:58.389Z,5.68
2023-04-19T21:17:26.248Z,5.07
2023-04-19T21:19:54.341Z,4.45
2023-04-19T21:22:22.293Z,3.45
2023-04-19T21:24:49.984Z,3.33
2023-04-19T21:27:17.605Z,4.18
2023-04-19T21:29:48.013Z,4.70
2023-04-19T21:32:15.647Z,5.10
2023-04-19T21:34:44.614Z,5.40
2023-04-19T21:37:13.081Z,9.63
2023-04-19T21:39:40.779Z,4.05
2023-04-19T21:42:08.414Z,3.80
2023-04-19T21:44:36.315Z,4.60
2023-04-19T21:47:05.786Z,4.88
2023-04-19T21:49:33.509Z,3.67
2023-04-19T21:52:01.291Z,8.43
2023-04-19T21:54:33.773Z,3.75
2023-04-19T21:57:02.145Z,4.78
2023-04-19T21:59:30.334Z,6.30
2023-04-19T22:01:58.228Z,4.40
2023-04-19T22:04:31.298Z,6.50
2023-04-19T22:07:02.198Z,2.97
2023-04-19T22:09:30.424Z,3.70
2023-04-19T22:11:58.115Z,7.45
2023-04-19T22:14:25.858Z,3.28
2023-04-19T22:16:54.279Z,5.65
2023-04-19T22:19:24.528Z,3.55
2023-04-19T22:21:55.109Z,2.67
2023-04-19T22:24:23.224Z,7.78
2023-04-19T22:26:53.067Z,5.40
2023-04-19T22:29:20.968Z,3.85
2023-04-19T22:31:48.648Z,4.35
2023-04-19T22:34:16.479Z,9.10
2023-04-19T22:36:44.122Z,4.68
2023-04-19T22:39:13.162Z,3.70
2023-04-19T22:41:40.805Z,4.30
2023-04-19T22:44:08.407Z,2.92
2023-04-19T22:46:37.215Z,6.28
2023-04-19T22:49:07.907Z,4.75
2023-04-19T22:51:36.732Z,4.43
2023-04-19T22:54:04.498Z,4.30
2023-04-19T22:56:33.701Z,9.80
2023-04-19T22:59:01.378Z,10.73
2023-04-19T23:01:29.072Z,6.00
2023-04-19T23:03:56.703Z,8.32
2023-04-19T23:06:24.750Z,4.28
2023-04-19T23:08:52.753Z,8.45
2023-04-19T23:11:25.185Z,5.57
2023-04-19T23:13:54.349Z,5.53
2023-04-19T23:16:24.706Z,4.97
2023-04-19T23:18:52.708Z,4.50
2023-04-19T23:21:20.678Z,4.55
2023-04-19T23:23:48.375Z,5.10
2023-04-19T23:26:16.002Z,4.70
2023-04-19T23:28:43.722Z,7.97
2023-04-19T23:31:12.798Z,5.82
2023-04-19T23:33:40.500Z,3.13
2023-04-19T23:36:08.483Z,4.07
2023-04-19T23:38:36.184Z,3.92
2023-04-19T23:41:03.968Z,4.43
2023-04-19T23:43:31.648Z,3.88
2023-04-19T23:45:59.354Z,4.45
2023-04-19T23:48:28.667Z,6.43
2023-04-19T23:50:56.328Z,6.45
2023-04-19T23:53:23.980Z,3.08
2023-04-19T23:55:51.689Z,4.30
2023-04-19T23:58:19.326Z,6.55
